Time;durP1;ratioP1;P1;durP2;ratioP2;P2;SDS_P1;SDS_P2;PMS_P1;PMS_P2;Temp;Humidity;BMP_temperature;BMP_pressure;BME280_temperature;BME280_humidity;BME280_pressure;Samples;Min_cycle;Max_cycle;Signal;HPM_P1;HPM_P2
2023/11/11 00:01:42;;;;;;;;;6.67;5.67;;;;;;;;5059748;28;45241;-81
2023/11/11 00:04:08;;;;;;;;;6.00;5.33;;;;;;;;5059721;28;45299;-80
2023/11/11 00:06:33;;;;;;;;;5.00;4.00;;;;;;;;5059460;28;45407;-80
2023/11/11 00:08:58;;;;;;;;;5.00;5.00;;;;;;;;5057187;28;47118;-80
2023/11/11 00:11:23;;;;;;;;;5.67;5.67;;;;;;;;5058370;28;47013;-80
2023/11/11 00:13:51;;;;;;;;;7.33;4.33;;;;;;;;5059819;28;45594;-80
2023/11/11 00:16:16;;;;;;;;;5.00;4.00;;;;;;;;5058500;28;45379;-80
2023/11/11 00:18:41;;;;;;;;;5.33;5.33;;;;;;;;5058151;28;45953;-80
2023/11/11 00:21:07;;;;;;;;;9.00;5.67;;;;;;;;5059195;28;46211;-80
2023/11/11 00:23:32;;;;;;;;;6.00;6.00;;;;;;;;5057982;28;45347;-80
2023/11/11 00:25:57;;;;;;;;;8.25;6.50;;;;;;;;5060022;28;45505;-80
2023/11/11 00:28:22;;;;;;;;;8.25;8.00;;;;;;;;5058902;28;47295;-79
2023/11/11 00:30:48;;;;;;;;;9.67;9.67;;;;;;;;5079709;28;45388;-80
2023/11/11 00:33:13;;;;;;;;;14.00;13.00;;;;;;;;5061412;28;45266;-80
2023/11/11 00:35:38;;;;;;;;;9.00;8.33;;;;;;;;5079740;28;45450;-80
2023/11/11 00:38:04;;;;;;;;;8.00;8.00;;;;;;;;5061121;28;46553;-80
2023/11/11 00:40:29;;;;;;;;;8.33;7.67;;;;;;;;5079382;28;45874;-81
2023/11/11 00:42:55;;;;;;;;;6.67;6.67;;;;;;;;5079433;28;45204;-80
2023/11/11 00:45:22;;;;;;;;;10.00;8.00;;;;;;;;5078942;28;45218;-80
2023/11/11 00:47:47;;;;;;;;;9.00;9.00;;;;;;;;5079316;28;45450;-79
2023/11/11 00:50:12;;;;;;;;;11.33;9.33;;;;;;;;5061262;28;48124;-80
2023/11/11 00:52:37;;;;;;;;;8.00;6.67;;;;;;;;5061172;28;45395;-80
2023/11/11 00:55:03;;;;;;;;;7.67;7.00;;;;;;;;5080935;28;45362;-80
2023/11/11 00:57:29;;;;;;;;;8.33;8.33;;;;;;;;5082803;28;45248;-80
2023/11/11 00:59:54;;;;;;;;;8.00;7.00;;;;;;;;5082998;28;45381;-80
2023/11/11 01:02:19;;;;;;;;;5.00;5.00;;;;;;;;5082956;28;45329;-81
2023/11/11 01:04:44;;;;;;;;;9.00;8.00;;;;;;;;5083039;28;45407;-80
2023/11/11 01:07:09;;;;;;;;;6.67;6.00;;;;;;;;5082905;28;45307;-79
2023/11/11 01:09:35;;;;;;;;;6.33;6.33;;;;;;;;5082368;28;45363;-80
2023/11/11 01:12:00;;;;;;;;;9.00;9.00;;;;;;;;5082919;28;45348;-80
2023/11/11 01:14:25;;;;;;;;;9.33;9.33;;;;;;;;5083057;28;45283;-79
2023/11/11 01:16:50;;;;;;;;;8.67;7.67;;;;;;;;5064365;28;46293;-80
2023/11/11 01:19:15;;;;;;;;;9.00;8.00;;;;;;;;5064315;28;47144;-80
2023/11/11 01:21:41;;;;;;;;;11.00;11.00;;;;;;;;5082482;28;45402;-79
2023/11/11 01:24:06;;;;;;;;;6.00;6.00;;;;;;;;5064152;28;45315;-80
2023/11/11 01:26:31;;;;;;;;;10.00;7.67;;;;;;;;5082517;28;45326;-79
2023/11/11 01:28:56;;;;;;;;;7.33;7.33;;;;;;;;5082468;28;45486;-80
2023/11/11 01:31:23;;;;;;;;;6.33;6.33;;;;;;;;5082518;28;45367;-79
2023/11/11 01:33:49;;;;;;;;;7.00;6.00;;;;;;;;5082599;28;45299;-81
2023/11/11 01:36:14;;;;;;;;;10.00;8.33;;;;;;;;5082099;28;45248;-79
2023/11/11 01:38:39;;;;;;;;;10.67;7.00;;;;;;;;5082167;28;46311;-79
2023/11/11 01:41:04;;;;;;;;;11.00;8.00;;;;;;;;5082243;28;45396;-80
2023/11/11 01:43:29;;;;;;;;;9.67;9.33;;;;;;;;5070663;28;45464;-80
2023/11/11 01:45:55;;;;;;;;;11.00;8.33;;;;;;;;5061820;28;45480;-80
2023/11/11 01:48:21;;;;;;;;;8.67;8.67;;;;;;;;5061286;28;45479;-79
2023/11/11 01:50:46;;;;;;;;;11.67;9.33;;;;;;;;5061873;28;45202;-80
2023/11/11 01:53:14;;;;;;;;;10.67;10.67;;;;;;;;5061709;28;45226;-81
2023/11/11 01:55:39;;;;;;;;;11.67;9.33;;;;;;;;5061819;28;45520;-80
2023/11/11 01:58:05;;;;;;;;;9.00;9.00;;;;;;;;5061703;28;46237;-80
2023/11/11 02:00:35;;;;;;;;;5.67;5.33;;;;;;;;5061758;28;45332;-79
2023/11/11 02:03:01;;;;;;;;;7.67;6.00;;;;;;;;5060326;28;45315;-81
2023/11/11 02:05:26;;;;;;;;;8.33;8.33;;;;;;;;5059530;28;46014;-80
2023/11/11 02:07:51;;;;;;;;;7.00;7.00;;;;;;;;5060034;28;45385;-80
2023/11/11 02:10:17;;;;;;;;;5.00;5.00;;;;;;;;5061427;28;45273;-80
2023/11/11 02:12:43;;;;;;;;;4.33;4.33;;;;;;;;5061745;28;45476;-80
2023/11/11 02:15:15;;;;;;;;;6.00;6.00;;;;;;;;5076886;28;46896;-80
2023/11/11 02:17:40;;;;;;;;;9.67;9.33;;;;;;;;5061427;28;45191;-80
2023/11/11 02:20:05;;;;;;;;;7.00;6.00;;;;;;;;5061518;28;45223;-80
2023/11/11 02:22:30;;;;;;;;;5.67;5.00;;;;;;;;5060072;28;45292;-80
2023/11/11 02:24:57;;;;;;;;;8.67;8.67;;;;;;;;5061526;28;45142;-79
2023/11/11 02:27:22;;;;;;;;;7.00;7.00;;;;;;;;5061344;28;46128;-80
2023/11/11 02:29:48;;;;;;;;;7.67;6.00;;;;;;;;5061318;28;45406;-81
2023/11/11 02:32:13;;;;;;;;;5.00;4.00;;;;;;;;5061506;28;45349;-80
2023/11/11 02:34:38;;;;;;;;;6.75;5.75;;;;;;;;5059945;28;45882;-80
2023/11/11 02:37:03;;;;;;;;;7.00;7.00;;;;;;;;5061005;28;45466;-80
2023/11/11 02:39:29;;;;;;;;;6.67;6.67;;;;;;;;5061145;28;45287;-80
2023/11/11 02:41:54;;;;;;;;;5.00;5.00;;;;;;;;5061287;28;45296;-80
2023/11/11 02:44:19;;;;;;;;;5.00;4.67;;;;;;;;5061293;28;45390;-80
2023/11/11 02:46:44;;;;;;;;;7.00;7.00;;;;;;;;5059714;28;47560;-80
2023/11/11 02:49:10;;;;;;;;;7.00;6.00;;;;;;;;5061058;28;45320;-80
2023/11/11 02:51:35;;;;;;;;;6.33;6.33;;;;;;;;5061065;28;45431;-80
2023/11/11 02:54:00;;;;;;;;;5.00;5.00;;;;;;;;5060878;28;45418;-80
2023/11/11 02:56:25;;;;;;;;;6.00;6.00;;;;;;;;5059770;28;47099;-80
2023/11/11 02:58:50;;;;;;;;;6.00;6.00;;;;;;;;5059815;28;45384;-80
2023/11/11 03:01:15;;;;;;;;;5.67;5.67;;;;;;;;5061019;28;45422;-80
2023/11/11 03:03:41;;;;;;;;;5.00;4.00;;;;;;;;5060760;28;45495;-80
2023/11/11 03:06:06;;;;;;;;;8.67;5.33;;;;;;;;5059040;28;47154;-80
2023/11/11 03:08:33;;;;;;;;;9.33;5.67;;;;;;;;5060237;28;45273;-80
2023/11/11 03:10:58;;;;;;;;;7.00;6.33;;;;;;;;5060914;28;45231;-80
2023/11/11 03:13:23;;;;;;;;;5.33;5.33;;;;;;;;5060802;28;45194;-80
2023/11/11 03:15:48;;;;;;;;;6.00;6.00;;;;;;;;5060664;28;45302;-80
2023/11/11 03:18:14;;;;;;;;;5.67;4.67;;;;;;;;5058997;28;45264;-80
2023/11/11 03:20:40;;;;;;;;;5.67;5.67;;;;;;;;5059316;28;45229;-79
2023/11/11 03:23:06;;;;;;;;;4.67;4.67;;;;;;;;5060593;28;45205;-80
2023/11/11 03:25:31;;;;;;;;;6.33;6.00;;;;;;;;5060411;28;45297;-80
2023/11/11 03:27:57;;;;;;;;;5.33;5.33;;;;;;;;5059165;28;45300;-80
2023/11/11 03:30:22;;;;;;;;;4.33;4.33;;;;;;;;5077894;28;45316;-80
2023/11/11 03:32:47;;;;;;;;;4.33;3.33;;;;;;;;5080768;28;45314;-80
2023/11/11 03:35:12;;;;;;;;;7.50;5.00;;;;;;;;5080762;28;46125;-79
2023/11/11 03:37:37;;;;;;;;;6.67;5.67;;;;;;;;5079130;28;45653;-80
2023/11/11 03:40:03;;;;;;;;;7.25;6.75;;;;;;;;5079556;28;45644;-80
2023/11/11 03:42:28;;;;;;;;;6.00;6.00;;;;;;;;5080980;28;45384;-80
2023/11/11 03:44:53;;;;;;;;;4.75;4.75;;;;;;;;5079357;28;47941;-80
2023/11/11 03:47:18;;;;;;;;;4.33;4.33;;;;;;;;5080583;28;45382;-80
2023/11/11 03:49:43;;;;;;;;;6.00;6.00;;;;;;;;5062381;28;45312;-80
2023/11/11 03:52:09;;;;;;;;;5.00;5.00;;;;;;;;5080336;28;45307;-80
2023/11/11 03:54:34;;;;;;;;;4.00;4.00;;;;;;;;5080257;28;45406;-80
2023/11/11 03:57:00;;;;;;;;;5.00;5.00;;;;;;;;5080543;28;45389;-80
2023/11/11 03:59:25;;;;;;;;;6.00;4.50;;;;;;;;5080616;28;45253;-80
2023/11/11 04:01:51;;;;;;;;;7.00;7.00;;;;;;;;5079537;28;45386;-80
2023/11/11 04:04:16;;;;;;;;;8.00;5.33;;;;;;;;5080055;28;46426;-80
2023/11/11 04:06:41;;;;;;;;;5.00;5.00;;;;;;;;5079978;28;45378;-80
2023/11/11 04:09:07;;;;;;;;;6.00;6.00;;;;;;;;5079856;28;45370;-80
2023/11/11 04:11:33;;;;;;;;;8.00;8.00;;;;;;;;5062234;28;47472;-80
2023/11/11 04:14:01;;;;;;;;;9.33;8.33;;;;;;;;5080177;28;45529;-80
2023/11/11 04:16:29;;;;;;;;;8.33;8.33;;;;;;;;5080035;28;45219;-80
2023/11/11 04:18:55;;;;;;;;;10.33;9.00;;;;;;;;5080091;28;45358;-80
2023/11/11 04:21:20;;;;;;;;;9.67;9.00;;;;;;;;5078324;28;46053;-80
2023/11/11 04:23:45;;;;;;;;;8.00;8.00;;;;;;;;5079718;28;45433;-80
2023/11/11 04:26:10;;;;;;;;;13.50;10.25;;;;;;;;5079988;28;45319;-80
2023/11/11 04:28:37;;;;;;;;;12.00;8.33;;;;;;;;5077434;28;45659;-80
2023/11/11 04:31:02;;;;;;;;;7.00;7.00;;;;;;;;5062541;28;45367;-80
2023/11/11 04:33:28;;;;;;;;;8.00;6.00;;;;;;;;5063161;28;45970;-80
2023/11/11 04:35:53;;;;;;;;;7.67;7.67;;;;;;;;5063230;28;45150;-81
2023/11/11 04:38:19;;;;;;;;;8.00;7.67;;;;;;;;5061666;28;45232;-80
2023/11/11 04:40:45;;;;;;;;;7.00;6.00;;;;;;;;5063073;28;45507;-80
2023/11/11 04:43:10;;;;;;;;;2.67;2.67;;;;;;;;5061338;28;47528;-80
2023/11/11 04:45:35;;;;;;;;;7.33;6.00;;;;;;;;5061969;28;45995;-80
2023/11/11 04:48:01;;;;;;;;;7.00;5.67;;;;;;;;5063046;28;45224;-80
2023/11/11 04:50:27;;;;;;;;;6.67;5.00;;;;;;;;5061702;28;46425;-80
2023/11/11 04:52:53;;;;;;;;;6.00;6.00;;;;;;;;5062872;28;45560;-80
2023/11/11 04:55:18;;;;;;;;;4.67;3.33;;;;;;;;5063778;28;45254;-80
2023/11/11 04:57:43;;;;;;;;;3.33;3.33;;;;;;;;5061521;28;45461;-80
2023/11/11 05:00:10;;;;;;;;;6.67;5.00;;;;;;;;5062576;28;45469;-80
2023/11/11 05:02:39;;;;;;;;;5.67;5.00;;;;;;;;5062812;28;45532;-80
2023/11/11 05:05:04;;;;;;;;;5.67;5.00;;;;;;;;5062512;28;45496;-80
2023/11/11 05:07:31;;;;;;;;;2.00;2.00;;;;;;;;5061193;28;45308;-81
2023/11/11 05:09:56;;;;;;;;;4.00;4.00;;;;;;;;5064418;28;45260;-80
2023/11/11 05:12:22;;;;;;;;;4.67;4.67;;;;;;;;5068747;28;46049;-80
2023/11/11 05:14:48;;;;;;;;;5.00;5.00;;;;;;;;5069732;28;45402;-81
2023/11/11 05:17:16;;;;;;;;;5.33;4.00;;;;;;;;5068829;28;45250;-81
2023/11/11 05:19:42;;;;;;;;;5.67;5.67;;;;;;;;5067814;28;46132;-81
2023/11/11 05:22:07;;;;;;;;;4.33;4.33;;;;;;;;5065990;28;47732;-80
2023/11/11 05:24:33;;;;;;;;;4.67;4.67;;;;;;;;5070147;28;45291;-81
2023/11/11 05:26:58;;;;;;;;;3.00;3.00;;;;;;;;5071423;28;45247;-81
2023/11/11 05:29:23;;;;;;;;;5.00;5.00;;;;;;;;5067321;28;45830;-80
2023/11/11 05:31:48;;;;;;;;;6.33;3.33;;;;;;;;5085140;28;46360;-80
2023/11/11 05:34:13;;;;;;;;;5.67;3.00;;;;;;;;5064996;28;45201;-81
2023/11/11 05:36:42;;;;;;;;;3.67;3.67;;;;;;;;5077069;28;45655;-81
2023/11/11 05:39:07;;;;;;;;;4.33;4.33;;;;;;;;5073889;28;45491;-80
2023/11/11 05:41:32;;;;;;;;;5.00;5.00;;;;;;;;5065317;28;45298;-81
2023/11/11 05:43:58;;;;;;;;;4.25;3.00;;;;;;;;5062301;28;45327;-79
2023/11/11 05:46:24;;;;;;;;;3.67;3.67;;;;;;;;5062282;28;45433;-81
2023/11/11 05:48:49;;;;;;;;;3.00;2.67;;;;;;;;5060618;28;47095;-81
2023/11/11 05:51:15;;;;;;;;;4.00;4.00;;;;;;;;5061718;28;45770;-81
2023/11/11 05:53:40;;;;;;;;;3.00;3.00;;;;;;;;5061786;28;45342;-80
2023/11/11 05:56:08;;;;;;;;;3.00;3.00;;;;;;;;5062219;28;45339;-81
2023/11/11 05:58:33;;;;;;;;;3.00;3.00;;;;;;;;5060435;28;46411;-80
2023/11/11 06:00:59;;;;;;;;;4.33;4.33;;;;;;;;5061611;28;45882;-81
2023/11/11 06:03:25;;;;;;;;;4.33;4.33;;;;;;;;5061257;28;45284;-81
2023/11/11 06:05:50;;;;;;;;;3.00;3.00;;;;;;;;5061019;28;45324;-80
2023/11/11 06:08:15;;;;;;;;;3.00;3.00;;;;;;;;5042122;28;47232;-81
2023/11/11 06:10:41;;;;;;;;;4.00;1.00;;;;;;;;5061122;28;45783;-80
2023/11/11 06:13:06;;;;;;;;;2.00;2.00;;;;;;;;5061719;28;45634;-80
2023/11/11 06:15:32;;;;;;;;;4.00;4.00;;;;;;;;5043720;28;45428;-80
2023/11/11 06:17:57;;;;;;;;;3.33;3.33;;;;;;;;5061547;28;45383;-80
2023/11/11 06:20:22;;;;;;;;;3.75;3.75;;;;;;;;5043508;28;47641;-80
2023/11/11 06:22:51;;;;;;;;;5.25;5.00;;;;;;;;5061382;28;45138;-81
2023/11/11 06:25:19;;;;;;;;;4.67;4.67;;;;;;;;5061494;28;45289;-81
2023/11/11 06:27:45;;;;;;;;;3.00;3.00;;;;;;;;5072606;28;45243;-81
2023/11/11 06:30:10;;;;;;;;;3.00;2.33;;;;;;;;5075316;28;46339;-81
2023/11/11 06:32:36;;;;;;;;;2.00;2.00;;;;;;;;5063285;28;45375;-80
2023/11/11 06:35:01;;;;;;;;;6.00;5.00;;;;;;;;5081161;28;45569;-81
2023/11/11 06:37:26;;;;;;;;;4.00;4.00;;;;;;;;5081353;28;45635;-80
2023/11/11 06:39:52;;;;;;;;;5.67;5.00;;;;;;;;5081244;28;45308;-80
2023/11/11 06:42:17;;;;;;;;;5.00;5.00;;;;;;;;5063287;28;45256;-83
2023/11/11 06:44:42;;;;;;;;;5.00;5.00;;;;;;;;5063200;28;45542;-82
2023/11/11 06:47:08;;;;;;;;;5.00;5.00;;;;;;;;5081430;28;45340;-81
2023/11/11 06:49:33;;;;;;;;;3.67;3.67;;;;;;;;5062901;28;48038;-81
2023/11/11 06:51:59;;;;;;;;;5.00;5.00;;;;;;;;5064493;28;45346;-84
2023/11/11 06:54:24;;;;;;;;;4.67;4.33;;;;;;;;5081926;28;45393;-82
2023/11/11 06:56:49;;;;;;;;;6.67;4.33;;;;;;;;5081607;28;45349;-81
2023/11/11 06:59:15;;;;;;;;;6.67;6.33;;;;;;;;5082033;28;46461;-82
2023/11/11 07:01:40;;;;;;;;;5.00;5.00;;;;;;;;5081261;28;45405;-81
2023/11/11 07:04:05;;;;;;;;;6.00;3.33;;;;;;;;5063266;28;45328;-83
2023/11/11 07:06:30;;;;;;;;;5.00;5.00;;;;;;;;5080976;28;45334;-81
2023/11/11 07:08:56;;;;;;;;;5.00;5.00;;;;;;;;5080208;28;45375;-83
2023/11/11 07:11:21;;;;;;;;;7.33;6.00;;;;;;;;5080307;28;45351;-82
2023/11/11 07:13:46;;;;;;;;;4.33;4.33;;;;;;;;5080312;28;45494;-83
2023/11/11 07:16:16;;;;;;;;;3.00;3.00;;;;;;;;5080501;28;45414;-79
2023/11/11 07:18:42;;;;;;;;;6.00;4.00;;;;;;;;5081649;28;45403;-79
2023/11/11 07:21:16;;;;;;;;;7.00;7.00;;;;;;;;5080544;28;45266;-80
2023/11/11 07:23:41;;;;;;;;;3.00;3.00;;;;;;;;5081387;28;45327;-78
2023/11/11 07:26:06;;;;;;;;;5.67;5.67;;;;;;;;5086210;28;45267;-79
2023/11/11 07:28:32;;;;;;;;;6.67;6.33;;;;;;;;5080694;28;46388;-80
2023/11/11 07:30:57;;;;;;;;;7.33;7.33;;;;;;;;5061109;28;45251;-80
2023/11/11 07:33:23;;;;;;;;;1.00;1.00;;;;;;;;5060773;28;45470;-80
2023/11/11 07:35:50;;;;;;;;;3.33;3.33;;;;;;;;5058976;28;46302;-80
2023/11/11 07:38:15;;;;;;;;;3.67;3.67;;;;;;;;5059951;28;47180;-81
2023/11/11 07:40:41;;;;;;;;;5.33;5.33;;;;;;;;5062809;28;45376;-80
2023/11/11 07:43:06;;;;;;;;;6.00;6.00;;;;;;;;5060927;28;45318;-79
2023/11/11 07:45:31;;;;;;;;;5.00;5.00;;;;;;;;5062967;28;45453;-80
2023/11/11 07:47:57;;;;;;;;;6.50;6.50;;;;;;;;5062799;28;45501;-81
2023/11/11 07:50:22;;;;;;;;;5.00;5.00;;;;;;;;5076531;28;45322;-80
2023/11/11 07:52:48;;;;;;;;;6.00;4.00;;;;;;;;5081231;28;45361;-80
2023/11/11 07:55:15;;;;;;;;;7.00;5.67;;;;;;;;5081906;28;45417;-80
2023/11/11 07:57:40;;;;;;;;;5.33;5.33;;;;;;;;5087438;28;45456;-81
2023/11/11 08:00:06;;;;;;;;;7.33;5.00;;;;;;;;5066010;28;45962;-82
2023/11/11 08:02:32;;;;;;;;;5.67;4.67;;;;;;;;5066272;28;45308;-81
2023/11/11 08:04:57;;;;;;;;;3.00;1.00;;;;;;;;5062890;28;46076;-81
2023/11/11 08:07:22;;;;;;;;;5.33;5.00;;;;;;;;5083379;28;46304;-81
2023/11/11 08:09:47;;;;;;;;;5.00;5.00;;;;;;;;5086178;28;45131;-81
2023/11/11 08:12:13;;;;;;;;;4.67;4.67;;;;;;;;5066878;28;45383;-81
2023/11/11 08:14:38;;;;;;;;;6.00;6.00;;;;;;;;5085451;28;45452;-81
2023/11/11 08:17:03;;;;;;;;;6.67;6.33;;;;;;;;5082938;28;45431;-81
2023/11/11 08:19:28;;;;;;;;;7.33;6.33;;;;;;;;5082122;28;45439;-81
2023/11/11 08:21:54;;;;;;;;;6.00;5.67;;;;;;;;5081429;28;45509;-81
2023/11/11 08:24:19;;;;;;;;;5.67;5.67;;;;;;;;5063111;28;46289;-81
2023/11/11 08:26:44;;;;;;;;;6.00;5.00;;;;;;;;5080596;28;46179;-81
2023/11/11 08:29:09;;;;;;;;;6.33;5.00;;;;;;;;5081103;28;45402;-82
2023/11/11 08:31:35;;;;;;;;;5.00;5.00;;;;;;;;5063453;28;45375;-80
2023/11/11 08:34:01;;;;;;;;;5.00;5.00;;;;;;;;5061619;28;47039;-80
2023/11/11 08:36:26;;;;;;;;;5.00;3.67;;;;;;;;5061412;28;47113;-79
2023/11/11 08:38:52;;;;;;;;;7.67;5.67;;;;;;;;5061165;28;45960;-80
2023/11/11 08:41:17;;;;;;;;;6.00;6.00;;;;;;;;5060453;28;45502;-80
2023/11/11 08:43:43;;;;;;;;;8.00;5.67;;;;;;;;5079489;28;45285;-79
2023/11/11 08:46:10;;;;;;;;;5.00;5.00;;;;;;;;5061273;28;47950;-80
2023/11/11 08:48:40;;;;;;;;;5.67;4.33;;;;;;;;5079667;28;45490;-81
2023/11/11 08:51:05;;;;;;;;;7.33;7.00;;;;;;;;5061455;28;45375;-80
2023/11/11 08:53:31;;;;;;;;;4.33;4.33;;;;;;;;5060819;28;46268;-81
2023/11/11 08:55:56;;;;;;;;;6.00;6.00;;;;;;;;5079407;28;46076;-80
2023/11/11 08:58:22;;;;;;;;;4.00;4.00;;;;;;;;5079828;28;45374;-80
2023/11/11 09:00:48;;;;;;;;;5.67;5.67;;;;;;;;5080227;28;45347;-80
2023/11/11 09:03:13;;;;;;;;;5.33;4.00;;;;;;;;5085096;28;45273;-80
2023/11/11 09:05:38;;;;;;;;;10.33;5.00;;;;;;;;5079195;28;45449;-80
2023/11/11 09:08:05;;;;;;;;;7.00;7.00;;;;;;;;5079330;28;45224;-79
2023/11/11 09:10:31;;;;;;;;;6.33;5.67;;;;;;;;5061350;28;45424;-80
2023/11/11 09:12:56;;;;;;;;;8.00;6.00;;;;;;;;5060786;28;46076;-79
2023/11/11 09:15:21;;;;;;;;;6.00;6.00;;;;;;;;5061295;28;47985;-79
2023/11/11 09:17:48;;;;;;;;;5.33;5.00;;;;;;;;5065121;28;46154;-79
2023/11/11 09:20:14;;;;;;;;;6.00;6.00;;;;;;;;5064476;28;45348;-79
2023/11/11 09:22:40;;;;;;;;;6.33;6.00;;;;;;;;5082167;28;45398;-79
2023/11/11 09:25:05;;;;;;;;;6.67;6.67;;;;;;;;5064118;28;48394;-80
2023/11/11 09:27:31;;;;;;;;;8.00;7.67;;;;;;;;5064363;28;45269;-79
2023/11/11 09:29:57;;;;;;;;;9.00;8.00;;;;;;;;5061298;28;45366;-78
2023/11/11 09:32:22;;;;;;;;;9.00;9.00;;;;;;;;5044108;28;46181;-80
2023/11/11 09:34:47;;;;;;;;;8.67;8.00;;;;;;;;5045049;28;47250;-79
2023/11/11 09:37:13;;;;;;;;;10.00;9.67;;;;;;;;5046089;28;45367;-81
2023/11/11 09:39:38;;;;;;;;;7.00;7.00;;;;;;;;5066621;27;45550;-80
2023/11/11 09:42:04;;;;;;;;;11.33;10.00;;;;;;;;5060549;28;47067;-80
2023/11/11 09:44:29;;;;;;;;;7.00;7.00;;;;;;;;5079105;28;46213;-79
2023/11/11 09:46:55;;;;;;;;;9.33;8.67;;;;;;;;5065027;28;46054;-80
2023/11/11 09:49:21;;;;;;;;;7.33;7.00;;;;;;;;5085842;28;45346;-80
2023/11/11 09:51:47;;;;;;;;;8.67;8.00;;;;;;;;5083175;28;45663;-81
2023/11/11 09:54:12;;;;;;;;;9.00;9.00;;;;;;;;5080934;28;45590;-79
2023/11/11 09:56:42;;;;;;;;;8.00;8.00;;;;;;;;5062559;28;45280;-79
2023/11/11 09:59:09;;;;;;;;;10.33;10.33;;;;;;;;5083015;28;45293;-82
2023/11/11 10:01:35;;;;;;;;;9.67;9.00;;;;;;;;5063212;28;45484;-82
2023/11/11 10:04:00;;;;;;;;;11.00;9.33;;;;;;;;5064454;28;47288;-81
2023/11/11 10:06:26;;;;;;;;;10.67;9.67;;;;;;;;5066432;28;45212;-81
2023/11/11 10:08:51;;;;;;;;;6.67;6.00;;;;;;;;5063530;28;45289;-81
2023/11/11 10:11:17;;;;;;;;;9.00;9.00;;;;;;;;5063157;28;45457;-80
2023/11/11 10:13:43;;;;;;;;;9.33;9.33;;;;;;;;5064178;28;46337;-80
2023/11/11 10:16:15;;;;;;;;;9.67;9.00;;;;;;;;5063539;28;45342;-82
2023/11/11 10:18:40;;;;;;;;;9.00;7.00;;;;;;;;5077805;28;45640;-81
2023/11/11 10:21:09;;;;;;;;;7.00;7.00;;;;;;;;5083113;28;45532;-82
2023/11/11 10:23:36;;;;;;;;;9.67;7.67;;;;;;;;5063121;28;47303;-79
2023/11/11 10:26:03;;;;;;;;;8.00;8.00;;;;;;;;5065593;28;46004;-81
2023/11/11 10:28:29;;;;;;;;;8.00;7.00;;;;;;;;5082070;28;45359;-82
2023/11/11 10:31:03;;;;;;;;;8.67;7.00;;;;;;;;5083684;28;45223;-80
2023/11/11 10:33:29;;;;;;;;;6.00;5.00;;;;;;;;5083330;28;46621;-81
2023/11/11 10:35:54;;;;;;;;;7.00;6.33;;;;;;;;5064973;28;46179;-81
2023/11/11 10:38:19;;;;;;;;;7.33;7.00;;;;;;;;5081961;28;45425;-80
2023/11/11 10:40:44;;;;;;;;;7.00;7.00;;;;;;;;5081716;28;45322;-80
2023/11/11 10:43:10;;;;;;;;;6.50;5.50;;;;;;;;5065468;28;46919;-81
2023/11/11 10:45:36;;;;;;;;;8.33;7.00;;;;;;;;5065452;28;45793;-79
2023/11/11 10:48:01;;;;;;;;;8.00;8.00;;;;;;;;5084852;28;45256;-79
2023/11/11 10:50:26;;;;;;;;;7.67;7.67;;;;;;;;5081528;28;45334;-77
2023/11/11 10:52:53;;;;;;;;;8.33;8.33;;;;;;;;5081086;28;45391;-80
2023/11/11 10:55:19;;;;;;;;;11.00;11.00;;;;;;;;5062723;28;45758;-80
2023/11/11 10:57:45;;;;;;;;;8.33;7.33;;;;;;;;5063178;28;45308;-80
2023/11/11 11:00:19;;;;;;;;;8.33;7.00;;;;;;;;5064398;28;46096;-76
2023/11/11 11:02:48;;;;;;;;;7.00;6.00;;;;;;;;5081315;28;45637;-75
2023/11/11 11:05:18;;;;;;;;;15.00;13.00;;;;;;;;5079768;28;45482;-77
2023/11/11 11:07:46;;;;;;;;;8.00;8.00;;;;;;;;5062601;28;45364;-78
2023/11/11 11:10:15;;;;;;;;;11.00;11.00;;;;;;;;5063230;28;47378;-79
2023/11/11 11:12:43;;;;;;;;;16.00;15.33;;;;;;;;5083411;28;45411;-80
2023/11/11 11:15:13;;;;;;;;;11.33;9.67;;;;;;;;5082580;28;45356;-77
2023/11/11 11:17:44;;;;;;;;;9.33;8.00;;;;;;;;5063360;28;45315;-78
2023/11/11 11:20:12;;;;;;;;;7.00;5.00;;;;;;;;5063951;28;45878;-78
2023/11/11 11:22:39;;;;;;;;;9.67;7.67;;;;;;;;5081586;28;46106;-77
2023/11/11 11:25:22;;;;;;;;;10.00;10.00;;;;;;;;5082710;28;45162;-78
2023/11/11 11:28:08;;;;;;;;;21.00;18.00;;;;;;;;5081732;28;45525;-80
2023/11/11 11:30:33;;;;;;;;;8.00;8.00;;;;;;;;5043786;28;46367;-79
2023/11/11 11:32:59;;;;;;;;;13.33;12.33;;;;;;;;5058005;28;46239;-79
2023/11/11 11:35:28;;;;;;;;;11.00;10.00;;;;;;;;5044142;28;45550;-77
2023/11/11 11:37:54;;;;;;;;;12.67;11.67;;;;;;;;5061027;28;45434;-78
2023/11/11 11:40:21;;;;;;;;;12.67;12.67;;;;;;;;5041336;28;46304;-79
2023/11/11 11:42:48;;;;;;;;;9.00;7.00;;;;;;;;5059731;28;45281;-81
2023/11/11 11:45:14;;;;;;;;;8.33;6.67;;;;;;;;5060657;28;45297;-79
2023/11/11 11:47:40;;;;;;;;;10.00;9.33;;;;;;;;5060619;28;45412;-79
2023/11/11 11:50:06;;;;;;;;;10.00;8.00;;;;;;;;5059944;28;45365;-79
2023/11/11 11:52:32;;;;;;;;;14.67;13.33;;;;;;;;5041927;28;47493;-76
2023/11/11 11:54:57;;;;;;;;;6.00;6.00;;;;;;;;5050535;28;45256;-76
2023/11/11 11:57:22;;;;;;;;;9.67;8.67;;;;;;;;5078728;28;45330;-78
2023/11/11 12:00:09;;;;;;;;;10.33;10.33;;;;;;;;5079217;28;45378;-77
2023/11/11 12:02:35;;;;;;;;;6.00;6.00;;;;;;;;5078666;28;46534;-78
2023/11/11 12:05:06;;;;;;;;;7.67;7.67;;;;;;;;5060361;28;45726;-77
2023/11/11 12:07:31;;;;;;;;;5.33;5.33;;;;;;;;5062043;28;45547;-79
2023/11/11 12:09:57;;;;;;;;;4.67;3.67;;;;;;;;5082088;28;45293;-76
2023/11/11 12:12:27;;;;;;;;;9.33;9.00;;;;;;;;5078371;28;45818;-76
2023/11/11 12:14:53;;;;;;;;;9.00;7.67;;;;;;;;5079120;28;45452;-77
2023/11/11 12:17:20;;;;;;;;;5.33;4.67;;;;;;;;5078429;28;45346;-79
2023/11/11 12:19:49;;;;;;;;;5.00;4.00;;;;;;;;5060576;28;46295;-78
2023/11/11 12:22:14;;;;;;;;;7.67;6.00;;;;;;;;5081319;28;45903;-76
2023/11/11 12:24:40;;;;;;;;;4.00;4.00;;;;;;;;5077408;28;45303;-78
2023/11/11 12:27:07;;;;;;;;;4.67;4.67;;;;;;;;5063534;28;45510;-78
2023/11/11 12:29:43;;;;;;;;;5.00;5.00;;;;;;;;5064681;28;46955;-78
2023/11/11 12:32:13;;;;;;;;;4.33;4.33;;;;;;;;5078355;28;45303;-79
2023/11/11 12:34:38;;;;;;;;;3.33;3.33;;;;;;;;5063105;28;45352;-76
2023/11/11 12:37:04;;;;;;;;;11.33;8.00;;;;;;;;5085091;28;45459;-75
2023/11/11 12:39:29;;;;;;;;;7.33;6.67;;;;;;;;5084600;28;46924;-76
2023/11/11 12:41:55;;;;;;;;;6.67;6.00;;;;;;;;5065387;28;47158;-78
2023/11/11 12:44:25;;;;;;;;;8.67;7.00;;;;;;;;5081241;28;45368;-77
2023/11/11 12:46:50;;;;;;;;;7.00;7.00;;;;;;;;5060917;28;46404;-77
2023/11/11 12:49:17;;;;;;;;;4.00;4.00;;;;;;;;5078426;28;45478;-78
2023/11/11 12:51:43;;;;;;;;;8.00;7.33;;;;;;;;5080315;28;45775;-77
2023/11/11 12:54:08;;;;;;;;;4.33;4.33;;;;;;;;5082259;28;45403;-78
2023/11/11 12:56:34;;;;;;;;;5.00;5.00;;;;;;;;5083660;28;45529;-79
2023/11/11 12:59:09;;;;;;;;;3.33;3.33;;;;;;;;5085761;28;45352;-78
2023/11/11 13:01:35;;;;;;;;;5.67;5.67;;;;;;;;5062629;28;47948;-80
2023/11/11 13:04:01;;;;;;;;;6.00;6.00;;;;;;;;5063924;27;45477;-80
2023/11/11 13:06:29;;;;;;;;;3.00;3.00;;;;;;;;5082482;27;45232;-78
2023/11/11 13:08:55;;;;;;;;;4.00;4.00;;;;;;;;5081422;28;45470;-78
2023/11/11 13:11:20;;;;;;;;;4.00;3.33;;;;;;;;5082052;28;45653;-79
2023/11/11 13:13:47;;;;;;;;;3.33;3.33;;;;;;;;5063270;28;45396;-79
2023/11/11 13:16:12;;;;;;;;;5.33;5.33;;;;;;;;5082321;28;45427;-76
2023/11/11 13:18:37;;;;;;;;;2.67;2.33;;;;;;;;5082879;28;45299;-77
2023/11/11 13:21:08;;;;;;;;;3.67;3.00;;;;;;;;5083021;28;45272;-77
2023/11/11 13:23:33;;;;;;;;;4.00;3.00;;;;;;;;5081092;28;45412;-76
2023/11/11 13:25:58;;;;;;;;;4.33;3.00;;;;;;;;5083545;28;45278;-76
2023/11/11 13:28:24;;;;;;;;;4.33;4.33;;;;;;;;5068845;28;46159;-78
2023/11/11 13:30:49;;;;;;;;;3.67;2.67;;;;;;;;5078416;27;46117;-78
2023/11/11 13:33:14;;;;;;;;;2.33;2.33;;;;;;;;5056300;28;45447;-77
2023/11/11 13:35:44;;;;;;;;;3.00;2.33;;;;;;;;5063087;28;45327;-76
2023/11/11 13:38:10;;;;;;;;;2.33;2.33;;;;;;;;5081511;28;45315;-76
2023/11/11 13:40:38;;;;;;;;;3.00;2.00;;;;;;;;5081105;28;45388;-76
2023/11/11 13:43:04;;;;;;;;;2.33;2.33;;;;;;;;5061507;28;45421;-76
2023/11/11 13:45:31;;;;;;;;;2.33;1.67;;;;;;;;5063551;28;45348;-76
2023/11/11 13:47:56;;;;;;;;;2.33;2.33;;;;;;;;5081107;28;45261;-75
2023/11/11 13:50:24;;;;;;;;;2.00;2.00;;;;;;;;5081243;28;45335;-75
2023/11/11 13:52:49;;;;;;;;;2.67;2.67;;;;;;;;5081449;28;45402;-74
2023/11/11 13:55:14;;;;;;;;;4.00;2.00;;;;;;;;5063997;28;45304;-75
2023/11/11 13:57:39;;;;;;;;;3.33;1.67;;;;;;;;5081660;28;45336;-78
2023/11/11 14:00:10;;;;;;;;;9.00;7.00;;;;;;;;5055826;27;47721;-77
2023/11/11 14:02:36;;;;;;;;;5.67;5.67;;;;;;;;5069744;28;45516;-78
2023/11/11 14:05:01;;;;;;;;;6.67;6.67;;;;;;;;5062596;28;45488;-78
2023/11/11 14:07:27;;;;;;;;;9.00;9.00;;;;;;;;5077563;28;45506;-78
2023/11/11 14:09:52;;;;;;;;;4.00;3.67;;;;;;;;5080502;28;45919;-78
2023/11/11 14:12:17;;;;;;;;;5.33;3.33;;;;;;;;5080424;28;45585;-76
2023/11/11 14:14:42;;;;;;;;;3.75;3.75;;;;;;;;5079610;28;45447;-77
2023/11/11 14:17:07;;;;;;;;;9.00;9.00;;;;;;;;5082397;28;45440;-75
2023/11/11 14:19:33;;;;;;;;;6.50;4.50;;;;;;;;5062947;28;47253;-76
2023/11/11 14:21:59;;;;;;;;;7.00;6.67;;;;;;;;5082934;28;45335;-76
2023/11/11 14:24:24;;;;;;;;;4.00;4.00;;;;;;;;5084211;28;45530;-75
2023/11/11 14:26:49;;;;;;;;;4.67;4.33;;;;;;;;5088711;28;45860;-76
2023/11/11 14:29:14;;;;;;;;;4.00;4.00;;;;;;;;5091044;28;45899;-76
2023/11/11 14:31:40;;;;;;;;;8.25;6.50;;;;;;;;5090029;28;45397;-76
2023/11/11 14:34:05;;;;;;;;;10.33;8.33;;;;;;;;5088670;28;44812;-76